sensor_id;sensor_type;location;lat;lon;timestamp;P1;durP1;ratioP1;P2;durP2;ratioP2
47860;SDS011;33620;52.340;5.984;2023-08-07T00:00:12;15.88;;;2.60;;
47860;SDS011;33620;52.340;5.984;2023-08-07T00:02:38;14.02;;;2.47;;
47860;SDS011;33620;52.340;5.984;2023-08-07T00:05:04;15.63;;;2.78;;
47860;SDS011;33620;52.340;5.984;2023-08-07T00:07:31;13.60;;;2.50;;
47860;SDS011;33620;52.340;5.984;2023-08-07T00:09:56;13.07;;;2.78;;
47860;SDS011;33620;52.340;5.984;2023-08-07T00:12:22;10.38;;;2.28;;
47860;SDS011;33620;52.340;5.984;2023-08-07T00:14:50;13.43;;;2.67;;
47860;SDS011;33620;52.340;5.984;2023-08-07T00:17:16;22.00;;;2.97;;
47860;SDS011;33620;52.340;5.984;2023-08-07T00:19:41;15.23;;;2.90;;
47860;SDS011;33620;52.340;5.984;2023-08-07T00:22:07;12.35;;;2.83;;
47860;SDS011;33620;52.340;5.984;2023-08-07T00:24:32;15.02;;;2.67;;
47860;SDS011;33620;52.340;5.984;2023-08-07T00:26:57;13.95;;;3.47;;
47860;SDS011;33620;52.340;5.984;2023-08-07T00:29:23;17.92;;;3.55;;
47860;SDS011;33620;52.340;5.984;2023-08-07T00:31:48;18.17;;;2.80;;
47860;SDS011;33620;52.340;5.984;2023-08-07T00:34:14;15.05;;;3.38;;
47860;SDS011;33620;52.340;5.984;2023-08-07T00:36:40;13.13;;;2.53;;
47860;SDS011;33620;52.340;5.984;2023-08-07T00:39:05;6.93;;;1.63;;
47860;SDS011;33620;52.340;5.984;2023-08-07T00:41:30;10.63;;;2.13;;
47860;SDS011;33620;52.340;5.984;2023-08-07T00:43:56;5.63;;;1.65;;
47860;SDS011;33620;52.340;5.984;2023-08-07T00:46:21;5.03;;;1.73;;
47860;SDS011;33620;52.340;5.984;2023-08-07T00:48:47;4.32;;;1.60;;
47860;SDS011;33620;52.340;5.984;2023-08-07T00:51:12;9.55;;;2.15;;
47860;SDS011;33620;52.340;5.984;2023-08-07T00:53:38;8.10;;;2.13;;
47860;SDS011;33620;52.340;5.984;2023-08-07T00:56:04;7.00;;;2.13;;
47860;SDS011;33620;52.340;5.984;2023-08-07T00:58:30;11.02;;;2.50;;
47860;SDS011;33620;52.340;5.984;2023-08-07T01:00:56;12.43;;;2.95;;
47860;SDS011;33620;52.340;5.984;2023-08-07T01:03:22;12.82;;;2.92;;
47860;SDS011;33620;52.340;5.984;2023-08-07T01:05:48;12.63;;;2.70;;
47860;SDS011;33620;52.340;5.984;2023-08-07T01:08:13;16.50;;;2.78;;
47860;SDS011;33620;52.340;5.984;2023-08-07T01:13:34;10.10;;;2.47;;
47860;SDS011;33620;52.340;5.984;2023-08-07T01:16:07;13.55;;;2.92;;
47860;SDS011;33620;52.340;5.984;2023-08-07T01:18:46;12.38;;;2.97;;
47860;SDS011;33620;52.340;5.984;2023-08-07T01:21:17;14.57;;;3.15;;
47860;SDS011;33620;52.340;5.984;2023-08-07T01:23:48;12.65;;;2.90;;
47860;SDS011;33620;52.340;5.984;2023-08-07T01:26:18;13.52;;;3.13;;
47860;SDS011;33620;52.340;5.984;2023-08-07T01:31:51;15.65;;;3.03;;
47860;SDS011;33620;52.340;5.984;2023-08-07T01:34:18;13.68;;;3.55;;
47860;SDS011;33620;52.340;5.984;2023-08-07T01:36:48;14.82;;;3.45;;
47860;SDS011;33620;52.340;5.984;2023-08-07T01:39:15;11.65;;;2.83;;
47860;SDS011;33620;52.340;5.984;2023-08-07T01:41:42;10.35;;;2.75;;
47860;SDS011;33620;52.340;5.984;2023-08-07T01:44:08;11.23;;;2.90;;
47860;SDS011;33620;52.340;5.984;2023-08-07T01:46:33;13.80;;;3.13;;
47860;SDS011;33620;52.340;5.984;2023-08-07T01:48:59;13.13;;;2.72;;
47860;SDS011;33620;52.340;5.984;2023-08-07T01:51:24;8.80;;;2.75;;
47860;SDS011;33620;52.340;5.984;2023-08-07T01:53:50;12.35;;;3.30;;
47860;SDS011;33620;52.340;5.984;2023-08-07T01:56:15;10.57;;;2.63;;
47860;SDS011;33620;52.340;5.984;2023-08-07T01:58:40;14.55;;;3.20;;
47860;SDS011;33620;52.340;5.984;2023-08-07T02:01:06;8.38;;;2.78;;
47860;SDS011;33620;52.340;5.984;2023-08-07T02:03:31;11.20;;;2.97;;
47860;SDS011;33620;52.340;5.984;2023-08-07T02:05:57;9.80;;;2.58;;
47860;SDS011;33620;52.340;5.984;2023-08-07T02:08:22;14.25;;;2.92;;
47860;SDS011;33620;52.340;5.984;2023-08-07T02:10:47;10.98;;;2.53;;
47860;SDS011;33620;52.340;5.984;2023-08-07T02:13:13;12.07;;;2.95;;
47860;SDS011;33620;52.340;5.984;2023-08-07T02:15:38;10.40;;;3.10;;
47860;SDS011;33620;52.340;5.984;2023-08-07T02:18:03;13.38;;;3.10;;
47860;SDS011;33620;52.340;5.984;2023-08-07T02:20:29;13.93;;;2.83;;
47860;SDS011;33620;52.340;5.984;2023-08-07T02:22:54;8.95;;;2.75;;
47860;SDS011;33620;52.340;5.984;2023-08-07T02:25:20;14.38;;;3.17;;
47860;SDS011;33620;52.340;5.984;2023-08-07T02:27:45;9.85;;;2.67;;
47860;SDS011;33620;52.340;5.984;2023-08-07T02:30:11;14.00;;;3.08;;
47860;SDS011;33620;52.340;5.984;2023-08-07T02:32:37;14.65;;;3.30;;
47860;SDS011;33620;52.340;5.984;2023-08-07T02:35:02;11.05;;;2.97;;
47860;SDS011;33620;52.340;5.984;2023-08-07T02:37:28;15.57;;;3.00;;
47860;SDS011;33620;52.340;5.984;2023-08-07T02:39:53;12.45;;;3.13;;
47860;SDS011;33620;52.340;5.984;2023-08-07T02:42:19;13.02;;;3.28;;
47860;SDS011;33620;52.340;5.984;2023-08-07T02:44:44;12.82;;;3.42;;
47860;SDS011;33620;52.340;5.984;2023-08-07T02:47:10;16.92;;;3.20;;
47860;SDS011;33620;52.340;5.984;2023-08-07T02:49:35;12.60;;;2.80;;
47860;SDS011;33620;52.340;5.984;2023-08-07T02:52:01;7.47;;;2.65;;
47860;SDS011;33620;52.340;5.984;2023-08-07T02:54:26;5.38;;;2.55;;
47860;SDS011;33620;52.340;5.984;2023-08-07T02:56:51;9.98;;;2.70;;
47860;SDS011;33620;52.340;5.984;2023-08-07T02:59:17;7.70;;;2.47;;
47860;SDS011;33620;52.340;5.984;2023-08-07T03:01:43;7.40;;;2.40;;
47860;SDS011;33620;52.340;5.984;2023-08-07T03:04:09;4.70;;;2.08;;
47860;SDS011;33620;52.340;5.984;2023-08-07T03:06:34;4.28;;;2.20;;
47860;SDS011;33620;52.340;5.984;2023-08-07T03:09:00;8.85;;;2.00;;
47860;SDS011;33620;52.340;5.984;2023-08-07T03:11:25;6.43;;;2.05;;
47860;SDS011;33620;52.340;5.984;2023-08-07T03:13:50;9.48;;;2.95;;
47860;SDS011;33620;52.340;5.984;2023-08-07T03:16:16;9.23;;;3.03;;
47860;SDS011;33620;52.340;5.984;2023-08-07T03:18:41;13.25;;;3.63;;
47860;SDS011;33620;52.340;5.984;2023-08-07T03:21:07;13.95;;;3.58;;
47860;SDS011;33620;52.340;5.984;2023-08-07T03:23:32;16.92;;;3.42;;
47860;SDS011;33620;52.340;5.984;2023-08-07T03:26:04;12.10;;;3.30;;
47860;SDS011;33620;52.340;5.984;2023-08-07T03:28:31;15.52;;;3.53;;
47860;SDS011;33620;52.340;5.984;2023-08-07T03:30:57;14.32;;;3.88;;
47860;SDS011;33620;52.340;5.984;2023-08-07T03:33:23;15.93;;;3.47;;
47860;SDS011;33620;52.340;5.984;2023-08-07T03:35:48;14.70;;;3.28;;
47860;SDS011;33620;52.340;5.984;2023-08-07T03:38:13;15.52;;;3.80;;
47860;SDS011;33620;52.340;5.984;2023-08-07T03:40:39;16.10;;;3.78;;
47860;SDS011;33620;52.340;5.984;2023-08-07T03:43:04;14.35;;;3.35;;
47860;SDS011;33620;52.340;5.984;2023-08-07T03:45:30;13.40;;;4.07;;
47860;SDS011;33620;52.340;5.984;2023-08-07T03:47:55;14.65;;;4.45;;
47860;SDS011;33620;52.340;5.984;2023-08-07T03:50:21;14.10;;;3.50;;
47860;SDS011;33620;52.340;5.984;2023-08-07T03:52:46;17.77;;;4.00;;
47860;SDS011;33620;52.340;5.984;2023-08-07T03:55:11;13.10;;;3.83;;
47860;SDS011;33620;52.340;5.984;2023-08-07T03:57:37;12.05;;;3.38;;
47860;SDS011;33620;52.340;5.984;2023-08-07T04:00:04;17.40;;;3.88;;
47860;SDS011;33620;52.340;5.984;2023-08-07T04:02:30;14.88;;;3.63;;
47860;SDS011;33620;52.340;5.984;2023-08-07T04:04:55;19.02;;;4.05;;
47860;SDS011;33620;52.340;5.984;2023-08-07T04:07:20;18.23;;;3.67;;
47860;SDS011;33620;52.340;5.984;2023-08-07T04:09:46;14.32;;;3.80;;
47860;SDS011;33620;52.340;5.984;2023-08-07T04:12:11;8.05;;;2.90;;
47860;SDS011;33620;52.340;5.984;2023-08-07T04:14:36;12.85;;;3.70;;
47860;SDS011;33620;52.340;5.984;2023-08-07T04:17:02;14.35;;;3.35;;
47860;SDS011;33620;52.340;5.984;2023-08-07T04:19:28;11.25;;;3.25;;
47860;SDS011;33620;52.340;5.984;2023-08-07T04:21:53;13.48;;;3.42;;
47860;SDS011;33620;52.340;5.984;2023-08-07T04:24:18;14.60;;;3.15;;
47860;SDS011;33620;52.340;5.984;2023-08-07T04:26:44;12.70;;;3.30;;
47860;SDS011;33620;52.340;5.984;2023-08-07T04:29:09;11.30;;;2.97;;
47860;SDS011;33620;52.340;5.984;2023-08-07T04:31:34;10.27;;;2.65;;
47860;SDS011;33620;52.340;5.984;2023-08-07T04:34:00;8.55;;;3.00;;
47860;SDS011;33620;52.340;5.984;2023-08-07T04:36:25;11.70;;;2.88;;
47860;SDS011;33620;52.340;5.984;2023-08-07T04:38:51;10.40;;;3.03;;
47860;SDS011;33620;52.340;5.984;2023-08-07T04:41:16;8.20;;;2.90;;
47860;SDS011;33620;52.340;5.984;2023-08-07T04:43:42;11.68;;;2.40;;
47860;SDS011;33620;52.340;5.984;2023-08-07T04:46:11;9.98;;;2.85;;
47860;SDS011;33620;52.340;5.984;2023-08-07T04:48:37;15.55;;;2.92;;
47860;SDS011;33620;52.340;5.984;2023-08-07T04:51:02;12.77;;;2.60;;
47860;SDS011;33620;52.340;5.984;2023-08-07T04:53:28;11.13;;;3.05;;
47860;SDS011;33620;52.340;5.984;2023-08-07T04:55:53;8.15;;;3.00;;
47860;SDS011;33620;52.340;5.984;2023-08-07T04:58:19;10.57;;;2.97;;
47860;SDS011;33620;52.340;5.984;2023-08-07T05:00:44;8.10;;;3.00;;
47860;SDS011;33620;52.340;5.984;2023-08-07T05:03:10;12.88;;;3.30;;
47860;SDS011;33620;52.340;5.984;2023-08-07T05:05:35;10.15;;;3.10;;
47860;SDS011;33620;52.340;5.984;2023-08-07T05:08:00;11.93;;;3.85;;
47860;SDS011;33620;52.340;5.984;2023-08-07T05:10:26;12.93;;;4.05;;
47860;SDS011;33620;52.340;5.984;2023-08-07T05:12:51;16.83;;;4.40;;
47860;SDS011;33620;52.340;5.984;2023-08-07T05:15:20;14.88;;;4.30;;
47860;SDS011;33620;52.340;5.984;2023-08-07T05:17:50;18.67;;;4.70;;
47860;SDS011;33620;52.340;5.984;2023-08-07T05:20:16;17.08;;;4.18;;
47860;SDS011;33620;52.340;5.984;2023-08-07T05:22:42;14.77;;;4.10;;
47860;SDS011;33620;52.340;5.984;2023-08-07T05:25:07;17.25;;;4.43;;
47860;SDS011;33620;52.340;5.984;2023-08-07T05:27:34;15.45;;;3.80;;
47860;SDS011;33620;52.340;5.984;2023-08-07T05:30:00;18.05;;;4.32;;
47860;SDS011;33620;52.340;5.984;2023-08-07T05:32:25;11.65;;;3.13;;
47860;SDS011;33620;52.340;5.984;2023-08-07T05:34:51;14.63;;;3.30;;
47860;SDS011;33620;52.340;5.984;2023-08-07T05:37:16;11.93;;;3.53;;
47860;SDS011;33620;52.340;5.984;2023-08-07T05:39:42;11.27;;;3.42;;
47860;SDS011;33620;52.340;5.984;2023-08-07T05:42:07;13.52;;;3.42;;
47860;SDS011;33620;52.340;5.984;2023-08-07T05:44:34;12.25;;;2.97;;
47860;SDS011;33620;52.340;5.984;2023-08-07T05:47:00;14.82;;;3.83;;
47860;SDS011;33620;52.340;5.984;2023-08-07T05:49:25;19.60;;;4.18;;
47860;SDS011;33620;52.340;5.984;2023-08-07T05:51:51;17.60;;;3.63;;
47860;SDS011;33620;52.340;5.984;2023-08-07T05:54:16;20.90;;;4.43;;
47860;SDS011;33620;52.340;5.984;2023-08-07T05:56:42;13.23;;;4.20;;
47860;SDS011;33620;52.340;5.984;2023-08-07T05:59:07;14.15;;;3.75;;
47860;SDS011;33620;52.340;5.984;2023-08-07T06:01:33;11.73;;;3.88;;
47860;SDS011;33620;52.340;5.984;2023-08-07T06:03:58;18.50;;;3.88;;
47860;SDS011;33620;52.340;5.984;2023-08-07T06:06:24;14.18;;;3.45;;
47860;SDS011;33620;52.340;5.984;2023-08-07T06:08:50;15.68;;;3.85;;
47860;SDS011;33620;52.340;5.984;2023-08-07T06:11:16;13.18;;;4.13;;
47860;SDS011;33620;52.340;5.984;2023-08-07T06:13:42;22.25;;;5.35;;
47860;SDS011;33620;52.340;5.984;2023-08-07T06:16:07;14.40;;;4.40;;
47860;SDS011;33620;52.340;5.984;2023-08-07T06:18:33;17.42;;;4.53;;
47860;SDS011;33620;52.340;5.984;2023-08-07T06:20:59;18.25;;;4.30;;
47860;SDS011;33620;52.340;5.984;2023-08-07T06:23:24;19.00;;;4.22;;
47860;SDS011;33620;52.340;5.984;2023-08-07T06:25:50;18.80;;;5.10;;
47860;SDS011;33620;52.340;5.984;2023-08-07T06:28:15;16.15;;;4.43;;
47860;SDS011;33620;52.340;5.984;2023-08-07T06:30:40;20.13;;;4.80;;
47860;SDS011;33620;52.340;5.984;2023-08-07T06:33:06;17.95;;;5.22;;
47860;SDS011;33620;52.340;5.984;2023-08-07T06:35:36;17.73;;;4.65;;
47860;SDS011;33620;52.340;5.984;2023-08-07T06:38:02;21.85;;;5.20;;
47860;SDS011;33620;52.340;5.984;2023-08-07T06:40:28;20.00;;;5.68;;
47860;SDS011;33620;52.340;5.984;2023-08-07T06:42:53;21.75;;;5.95;;
47860;SDS011;33620;52.340;5.984;2023-08-07T06:45:19;20.23;;;5.13;;
47860;SDS011;33620;52.340;5.984;2023-08-07T06:47:44;15.75;;;4.85;;
47860;SDS011;33620;52.340;5.984;2023-08-07T06:50:10;20.13;;;5.20;;
47860;SDS011;33620;52.340;5.984;2023-08-07T06:52:35;24.17;;;6.10;;
47860;SDS011;33620;52.340;5.984;2023-08-07T06:55:01;23.02;;;5.30;;
47860;SDS011;33620;52.340;5.984;2023-08-07T06:57:27;22.17;;;5.82;;
47860;SDS011;33620;52.340;5.984;2023-08-07T06:59:53;21.52;;;5.70;;
47860;SDS011;33620;52.340;5.984;2023-08-07T07:02:18;21.02;;;5.35;;
47860;SDS011;33620;52.340;5.984;2023-08-07T07:04:44;20.67;;;5.20;;
47860;SDS011;33620;52.340;5.984;2023-08-07T07:07:09;18.85;;;4.82;;
47860;SDS011;33620;52.340;5.984;2023-08-07T07:09:35;20.92;;;5.57;;
47860;SDS011;33620;52.340;5.984;2023-08-07T07:12:00;19.77;;;5.18;;
47860;SDS011;33620;52.340;5.984;2023-08-07T07:14:25;19.00;;;5.15;;
47860;SDS011;33620;52.340;5.984;2023-08-07T07:16:51;17.58;;;4.90;;
47860;SDS011;33620;52.340;5.984;2023-08-07T07:19:16;19.83;;;5.32;;
47860;SDS011;33620;52.340;5.984;2023-08-07T07:21:42;22.70;;;5.20;;
47860;SDS011;33620;52.340;5.984;2023-08-07T07:24:07;19.92;;;4.95;;
47860;SDS011;33620;52.340;5.984;2023-08-07T07:26:32;17.33;;;5.47;;
47860;SDS011;33620;52.340;5.984;2023-08-07T07:28:58;19.70;;;5.07;;
47860;SDS011;33620;52.340;5.984;2023-08-07T07:31:23;24.30;;;4.88;;
47860;SDS011;33620;52.340;5.984;2023-08-07T07:33:49;19.13;;;5.10;;
47860;SDS011;33620;52.340;5.984;2023-08-07T07:36:15;19.23;;;4.63;;
47860;SDS011;33620;52.340;5.984;2023-08-07T07:38:47;14.48;;;4.60;;
47860;SDS011;33620;52.340;5.984;2023-08-07T07:41:13;22.98;;;5.07;;
47860;SDS011;33620;52.340;5.984;2023-08-07T07:43:39;18.85;;;4.72;;
47860;SDS011;33620;52.340;5.984;2023-08-07T07:46:05;18.88;;;4.38;;
47860;SDS011;33620;52.340;5.984;2023-08-07T07:48:30;13.65;;;4.22;;
47860;SDS011;33620;52.340;5.984;2023-08-07T07:50:59;21.70;;;5.80;;
47860;SDS011;33620;52.340;5.984;2023-08-07T07:53:27;17.40;;;4.43;;
47860;SDS011;33620;52.340;5.984;2023-08-07T07:55:53;21.13;;;4.90;;
47860;SDS011;33620;52.340;5.984;2023-08-07T07:58:19;18.60;;;3.92;;
47860;SDS011;33620;52.340;5.984;2023-08-07T08:00:45;14.52;;;3.78;;
47860;SDS011;33620;52.340;5.984;2023-08-07T08:03:10;13.05;;;3.95;;
47860;SDS011;33620;52.340;5.984;2023-08-07T08:05:37;11.55;;;3.55;;
47860;SDS011;33620;52.340;5.984;2023-08-07T08:08:03;13.25;;;3.60;;
47860;SDS011;33620;52.340;5.984;2023-08-07T08:10:29;11.48;;;3.58;;
47860;SDS011;33620;52.340;5.984;2023-08-07T08:12:54;15.02;;;4.13;;
47860;SDS011;33620;52.340;5.984;2023-08-07T08:15:21;18.75;;;3.72;;
47860;SDS011;33620;52.340;5.984;2023-08-07T08:17:47;12.65;;;3.88;;
47860;SDS011;33620;52.340;5.984;2023-08-07T08:20:12;12.30;;;3.55;;
47860;SDS011;33620;52.340;5.984;2023-08-07T08:22:43;18.20;;;3.80;;
47860;SDS011;33620;52.340;5.984;2023-08-07T08:25:12;12.18;;;3.40;;
47860;SDS011;33620;52.340;5.984;2023-08-07T08:27:38;16.92;;;3.30;;
47860;SDS011;33620;52.340;5.984;2023-08-07T08:30:04;13.00;;;3.65;;
47860;SDS011;33620;52.340;5.984;2023-08-07T08:32:30;13.82;;;3.63;;
47860;SDS011;33620;52.340;5.984;2023-08-07T08:34:56;9.75;;;3.70;;
47860;SDS011;33620;52.340;5.984;2023-08-07T08:37:21;16.27;;;3.35;;
47860;SDS011;33620;52.340;5.984;2023-08-07T08:39:47;14.13;;;3.28;;
47860;SDS011;33620;52.340;5.984;2023-08-07T08:42:12;13.65;;;3.25;;
47860;SDS011;33620;52.340;5.984;2023-08-07T08:44:39;10.73;;;3.00;;
47860;SDS011;33620;52.340;5.984;2023-08-07T08:47:05;12.05;;;3.90;;
47860;SDS011;33620;52.340;5.984;2023-08-07T08:49:33;16.60;;;4.40;;
47860;SDS011;33620;52.340;5.984;2023-08-07T08:52:01;14.30;;;3.63;;
47860;SDS011;33620;52.340;5.984;2023-08-07T08:54:28;14.13;;;3.58;;
47860;SDS011;33620;52.340;5.984;2023-08-07T08:56:54;12.02;;;3.25;;
47860;SDS011;33620;52.340;5.984;2023-08-07T08:59:21;9.77;;;3.15;;
47860;SDS011;33620;52.340;5.984;2023-08-07T09:01:47;21.92;;;4.65;;
47860;SDS011;33620;52.340;5.984;2023-08-07T09:04:16;20.02;;;4.00;;
47860;SDS011;33620;52.340;5.984;2023-08-07T09:06:42;14.32;;;3.97;;
47860;SDS011;33620;52.340;5.984;2023-08-07T09:09:08;14.82;;;3.83;;
47860;SDS011;33620;52.340;5.984;2023-08-07T09:11:34;17.38;;;4.07;;
47860;SDS011;33620;52.340;5.984;2023-08-07T09:14:01;16.45;;;3.97;;
47860;SDS011;33620;52.340;5.984;2023-08-07T09:16:28;11.52;;;4.03;;
47860;SDS011;33620;52.340;5.984;2023-08-07T09:18:55;14.38;;;3.83;;
47860;SDS011;33620;52.340;5.984;2023-08-07T09:21:21;10.02;;;3.55;;
47860;SDS011;33620;52.340;5.984;2023-08-07T09:23:46;15.93;;;3.53;;
47860;SDS011;33620;52.340;5.984;2023-08-07T09:26:12;11.85;;;3.40;;
47860;SDS011;33620;52.340;5.984;2023-08-07T09:28:37;12.45;;;3.75;;
47860;SDS011;33620;52.340;5.984;2023-08-07T09:31:05;13.73;;;2.95;;
47860;SDS011;33620;52.340;5.984;2023-08-07T09:33:33;12.50;;;2.70;;
47860;SDS011;33620;52.340;5.984;2023-08-07T09:35:59;11.68;;;3.10;;
47860;SDS011;33620;52.340;5.984;2023-08-07T09:38:32;10.82;;;3.30;;
47860;SDS011;33620;52.340;5.984;2023-08-07T09:41:01;14.15;;;3.10;;
47860;SDS011;33620;52.340;5.984;2023-08-07T09:43:34;12.98;;;3.67;;
47860;SDS011;33620;52.340;5.984;2023-08-07T09:46:03;10.13;;;2.92;;
47860;SDS011;33620;52.340;5.984;2023-08-07T09:48:30;9.57;;;3.38;;
47860;SDS011;33620;52.340;5.984;2023-08-07T09:51:00;13.77;;;3.30;;
47860;SDS011;33620;52.340;5.984;2023-08-07T09:53:30;8.25;;;2.70;;
47860;SDS011;33620;52.340;5.984;2023-08-07T09:55:56;10.00;;;2.85;;
47860;SDS011;33620;52.340;5.984;2023-08-07T09:58:22;12.05;;;2.10;;
47860;SDS011;33620;52.340;5.984;2023-08-07T10:00:49;9.05;;;1.92;;
47860;SDS011;33620;52.340;5.984;2023-08-07T10:03:14;8.55;;;2.38;;
47860;SDS011;33620;52.340;5.984;2023-08-07T10:05:42;9.43;;;2.45;;
47860;SDS011;33620;52.340;5.984;2023-08-07T10:08:10;10.48;;;2.28;;
47860;SDS011;33620;52.340;5.984;2023-08-07T10:10:37;10.73;;;2.83;;
47860;SDS011;33620;52.340;5.984;2023-08-07T10:13:03;7.10;;;2.58;;
47860;SDS011;33620;52.340;5.984;2023-08-07T10:15:29;12.52;;;3.10;;
47860;SDS011;33620;52.340;5.984;2023-08-07T10:17:56;11.60;;;2.75;;
47860;SDS011;33620;52.340;5.984;2023-08-07T10:20:22;16.45;;;2.88;;
47860;SDS011;33620;52.340;5.984;2023-08-07T10:22:49;11.80;;;2.65;;
47860;SDS011;33620;52.340;5.984;2023-08-07T10:25:17;9.07;;;2.63;;
47860;SDS011;33620;52.340;5.984;2023-08-07T10:27:47;9.15;;;2.90;;
47860;SDS011;33620;52.340;5.984;2023-08-07T10:30:15;13.55;;;2.65;;
47860;SDS011;33620;52.340;5.984;2023-08-07T10:32:44;8.45;;;2.70;;
47860;SDS011;33620;52.340;5.984;2023-08-07T10:35:22;13.82;;;3.22;;
47860;SDS011;33620;52.340;5.984;2023-08-07T10:37:49;7.30;;;2.53;;
47860;SDS011;33620;52.340;5.984;2023-08-07T10:40:17;9.52;;;2.42;;
47860;SDS011;33620;52.340;5.984;2023-08-07T10:45:33;4.25;;;2.25;;
47860;SDS011;33620;52.340;5.984;2023-08-07T10:48:03;9.85;;;2.78;;
47860;SDS011;33620;52.340;5.984;2023-08-07T10:50:32;7.10;;;2.75;;
47860;SDS011;33620;52.340;5.984;2023-08-07T10:53:00;10.65;;;2.65;;
47860;SDS011;33620;52.340;5.984;2023-08-07T10:55:26;7.65;;;2.25;;
47860;SDS011;33620;52.340;5.984;2023-08-07T10:57:55;13.10;;;3.58;;
47860;SDS011;33620;52.340;5.984;2023-08-07T11:00:27;11.45;;;2.83;;
47860;SDS011;33620;52.340;5.984;2023-08-07T11:02:53;12.60;;;2.55;;
47860;SDS011;33620;52.340;5.984;2023-08-07T11:05:19;8.68;;;2.83;;
47860;SDS011;33620;52.340;5.984;2023-08-07T11:07:45;13.15;;;2.85;;
47860;SDS011;33620;52.340;5.984;2023-08-07T11:10:13;6.63;;;2.92;;
47860;SDS011;33620;52.340;5.984;2023-08-07T11:12:40;10.40;;;2.95;;
47860;SDS011;33620;52.340;5.984;2023-08-07T11:15:06;6.82;;;2.60;;
47860;SDS011;33620;52.340;5.984;2023-08-07T11:17:32;9.65;;;2.53;;
47860;SDS011;33620;52.340;5.984;2023-08-07T11:19:57;5.93;;;2.47;;
47860;SDS011;33620;52.340;5.984;2023-08-07T11:22:23;9.02;;;2.55;;
47860;SDS011;33620;52.340;5.984;2023-08-07T11:24:49;9.52;;;3.20;;
47860;SDS011;33620;52.340;5.984;2023-08-07T11:27:16;12.43;;;3.08;;
47860;SDS011;33620;52.340;5.984;2023-08-07T11:29:41;8.77;;;2.85;;
47860;SDS011;33620;52.340;5.984;2023-08-07T11:32:07;8.30;;;2.97;;
47860;SDS011;33620;52.340;5.984;2023-08-07T11:34:33;14.25;;;3.22;;
47860;SDS011;33620;52.340;5.984;2023-08-07T11:36:59;9.40;;;3.00;;
47860;SDS011;33620;52.340;5.984;2023-08-07T11:39:25;9.68;;;3.03;;
47860;SDS011;33620;52.340;5.984;2023-08-07T11:41:51;10.02;;;2.85;;
47860;SDS011;33620;52.340;5.984;2023-08-07T11:44:20;11.55;;;2.63;;
47860;SDS011;33620;52.340;5.984;2023-08-07T11:46:45;15.40;;;3.47;;
47860;SDS011;33620;52.340;5.984;2023-08-07T11:49:11;9.27;;;3.47;;
47860;SDS011;33620;52.340;5.984;2023-08-07T11:51:37;12.80;;;2.85;;
47860;SDS011;33620;52.340;5.984;2023-08-07T11:54:03;7.43;;;2.72;;
47860;SDS011;33620;52.340;5.984;2023-08-07T11:56:28;10.95;;;2.60;;
47860;SDS011;33620;52.340;5.984;2023-08-07T11:58:54;11.32;;;3.10;;
47860;SDS011;33620;52.340;5.984;2023-08-07T12:01:23;12.77;;;2.92;;
47860;SDS011;33620;52.340;5.984;2023-08-07T12:03:52;7.60;;;2.80;;
47860;SDS011;33620;52.340;5.984;2023-08-07T12:06:23;11.85;;;3.15;;
47860;SDS011;33620;52.340;5.984;2023-08-07T12:08:50;7.55;;;2.75;;
47860;SDS011;33620;52.340;5.984;2023-08-07T12:11:19;12.45;;;3.05;;
47860;SDS011;33620;52.340;5.984;2023-08-07T12:13:46;7.25;;;2.58;;
47860;SDS011;33620;52.340;5.984;2023-08-07T12:16:13;6.28;;;2.15;;
47860;SDS011;33620;52.340;5.984;2023-08-07T12:18:46;5.28;;;2.10;;
47860;SDS011;33620;52.340;5.984;2023-08-07T12:21:15;7.88;;;2.38;;
47860;SDS011;33620;52.340;5.984;2023-08-07T12:23:44;8.35;;;2.30;;
47860;SDS011;33620;52.340;5.984;2023-08-07T12:26:10;7.30;;;2.50;;
47860;SDS011;33620;52.340;5.984;2023-08-07T12:28:35;8.10;;;2.58;;
47860;SDS011;33620;52.340;5.984;2023-08-07T12:31:02;7.47;;;2.83;;
47860;SDS011;33620;52.340;5.984;2023-08-07T12:33:30;9.10;;;2.90;;
47860;SDS011;33620;52.340;5.984;2023-08-07T12:35:56;6.78;;;2.30;;
47860;SDS011;33620;52.340;5.984;2023-08-07T12:38:22;11.30;;;2.60;;
47860;SDS011;33620;52.340;5.984;2023-08-07T12:40:48;8.60;;;2.20;;
47860;SDS011;33620;52.340;5.984;2023-08-07T12:43:13;9.85;;;2.70;;
47860;SDS011;33620;52.340;5.984;2023-08-07T12:45:38;9.77;;;2.83;;
47860;SDS011;33620;52.340;5.984;2023-08-07T12:48:04;10.35;;;2.42;;
47860;SDS011;33620;52.340;5.984;2023-08-07T12:50:30;12.05;;;2.63;;
47860;SDS011;33620;52.340;5.984;2023-08-07T12:52:55;10.93;;;2.80;;
47860;SDS011;33620;52.340;5.984;2023-08-07T12:55:21;7.35;;;2.67;;
47860;SDS011;33620;52.340;5.984;2023-08-07T12:57:47;6.75;;;2.30;;
47860;SDS011;33620;52.340;5.984;2023-08-07T13:00:14;10.27;;;2.72;;
47860;SDS011;33620;52.340;5.984;2023-08-07T13:02:40;8.45;;;2.42;;
47860;SDS011;33620;52.340;5.984;2023-08-07T13:05:07;10.82;;;2.70;;
47860;SDS011;33620;52.340;5.984;2023-08-07T13:07:33;10.80;;;2.72;;
47860;SDS011;33620;52.340;5.984;2023-08-07T13:09:59;9.73;;;2.70;;
47860;SDS011;33620;52.340;5.984;2023-08-07T13:12:24;9.15;;;3.28;;
47860;SDS011;33620;52.340;5.984;2023-08-07T13:14:50;9.68;;;2.65;;
47860;SDS011;33620;52.340;5.984;2023-08-07T13:17:15;6.55;;;2.80;;
47860;SDS011;33620;52.340;5.984;2023-08-07T13:19:41;11.30;;;3.28;;
47860;SDS011;33620;52.340;5.984;2023-08-07T13:22:07;13.70;;;2.97;;
47860;SDS011;33620;52.340;5.984;2023-08-07T13:24:32;7.50;;;2.67;;
47860;SDS011;33620;52.340;5.984;2023-08-07T13:26:58;10.27;;;2.60;;
47860;SDS011;33620;52.340;5.984;2023-08-07T13:29:23;9.32;;;2.50;;
47860;SDS011;33620;52.340;5.984;2023-08-07T13:31:51;6.78;;;2.60;;
47860;SDS011;33620;52.340;5.984;2023-08-07T13:34:16;7.90;;;2.42;;
47860;SDS011;33620;52.340;5.984;2023-08-07T13:36:42;6.55;;;2.17;;
47860;SDS011;33620;52.340;5.984;2023-08-07T13:39:07;7.68;;;2.40;;
47860;SDS011;33620;52.340;5.984;2023-08-07T13:41:33;7.45;;;2.08;;
47860;SDS011;33620;52.340;5.984;2023-08-07T13:43:59;5.25;;;2.35;;
47860;SDS011;33620;52.340;5.984;2023-08-07T13:46:25;12.32;;;2.80;;
47860;SDS011;33620;52.340;5.984;2023-08-07T13:48:51;7.60;;;2.28;;
47860;SDS011;33620;52.340;5.984;2023-08-07T13:51:17;9.55;;;2.35;;
47860;SDS011;33620;52.340;5.984;2023-08-07T13:53:43;6.70;;;2.22;;
47860;SDS011;33620;52.340;5.984;2023-08-07T13:56:09;6.20;;;2.50;;
47860;SDS011;33620;52.340;5.984;2023-08-07T13:58:37;7.97;;;2.20;;
47860;SDS011;33620;52.340;5.984;2023-08-07T14:01:03;7.47;;;2.08;;
47860;SDS011;33620;52.340;5.984;2023-08-07T14:03:29;5.25;;;2.13;;
47860;SDS011;33620;52.340;5.984;2023-08-07T14:05:55;9.95;;;2.33;;
47860;SDS011;33620;52.340;5.984;2023-08-07T14:08:20;5.25;;;1.90;;
47860;SDS011;33620;52.340;5.984;2023-08-07T14:10:45;7.90;;;2.60;;
47860;SDS011;33620;52.340;5.984;2023-08-07T14:13:11;6.85;;;2.38;;
47860;SDS011;33620;52.340;5.984;2023-08-07T14:15:36;5.65;;;2.20;;
47860;SDS011;33620;52.340;5.984;2023-08-07T14:18:02;11.32;;;2.55;;
47860;SDS011;33620;52.340;5.984;2023-08-07T14:20:27;4.68;;;2.10;;
47860;SDS011;33620;52.340;5.984;2023-08-07T14:22:53;8.50;;;2.08;;
47860;SDS011;33620;52.340;5.984;2023-08-07T14:25:18;9.05;;;2.42;;
47860;SDS011;33620;52.340;5.984;2023-08-07T14:27:47;5.18;;;2.03;;
47860;SDS011;33620;52.340;5.984;2023-08-07T14:30:13;8.20;;;2.10;;
47860;SDS011;33620;52.340;5.984;2023-08-07T14:32:38;6.18;;;2.20;;
47860;SDS011;33620;52.340;5.984;2023-08-07T14:35:04;11.75;;;2.63;;
47860;SDS011;33620;52.340;5.984;2023-08-07T14:37:30;3.22;;;1.90;;
47860;SDS011;33620;52.340;5.984;2023-08-07T14:39:55;8.63;;;1.77;;